• Join FlightAware (Why Join?)
  • Login
  • US Flag 
10:32PM EDT


 

Airport Tracker/Info


-or-


 

Live Flight TrackerFlight Track Log ✈ UAL1062 ✈ 27-Jun-2013 ✈ KORD - KIAH

Flight Track Log - Related Links

Times and Time Zones

All times are in EDT time to prevent confusion due to time zone crossing. See the UAL1062 flight status page for this flight to view local times or setup timezone preferences in your user account.

Time Position Orientation Groundspeed Altitude Reporting Facility
EDT Latitude Longitude Course Direction KTS MPH feet Rate Location/Type
12:18PM 41.6735 -88.1342 189° South  Level Estimated
12:19PM 41.5708 -88.2096 189° South  Level Estimated
12:19PM 41.7380 -87.9970 194° South 308 354 6,800  Level FlightAware
12:20PM 41.4679 -88.2848 194° South  Level Estimated
12:20PM 41.7160 -87.9990 184° South 307 353 7,700  Level FlightAware
12:20PM 41.6360 -88.0070 184° South 312 359 10,800 3,300 Climbing FlightAware
12:21PM 41.5660 -88.0140 184° South 344 396 12,600 2,040 Climbing FlightAware
12:22PM 41.4930 -88.0210 184° South 386 444 13,800 2,100 Climbing FlightAware
12:22PM 41.4180 -88.0290 185° South 393 452 15,600 3,000 Climbing FlightAware
12:23PM 41.3600 -88.0460 192° South 382 440 17,600 2,700 Climbing FlightAware
12:24PM 41.2780 -88.0730 194° South 395 455 19,300 2,160 Climbing FlightAware
12:24PM 41.2010 -88.0970 193° South 408 470 20,800 2,040 Climbing FlightAware
12:25PM 41.1270 -88.1190 193° South 417 480 22,100 1,800 Climbing FlightAware
12:27PM 40.9290 -88.1750 192° South 438 504 25,100 1,800 Climbing FlightAware
12:27PM 40.8500 -88.1980 192° South 441 507 26,400 1,800 Climbing FlightAware
12:28PM 40.7630 -88.2220 192° South 449 517 27,600 1,440 Climbing FlightAware
12:29PM 40.6780 -88.2630 200° South 445 512 28,500 900 Climbing FlightAware
12:33PM 40.2430 -88.5730 209° Southwest 472 543 32,000 960 Climbing FlightAware
12:34PM 40.1010 -88.6720 208° Southwest 471 542 33,600 1,500 Climbing FlightAware
12:35PM 40.0210 -88.7290 209° Southwest 468 539 34,600 1,320 Climbing FlightAware
12:36PM 39.8910 -88.8190 208° Southwest 460 529 36,100 1,200 Climbing FlightAware
12:37PM 39.8040 -88.8800 208° Southwest 457 526 37,000 600 Climbing FlightAware
12:37PM 39.7380 -88.9260 208° Southwest 459 528 37,000  Level FlightAware
12:38PM 39.6470 -88.9900 208° Southwest 459 528 37,000  Level FlightAware
12:39PM 39.5450 -89.0600 208° Southwest 461 531 37,000  Level FlightAware
12:40PM 39.4630 -89.1170 208° Southwest 461 531 37,000  Level FlightAware
12:40PM 39.3740 -89.1780 208° Southwest 462 532 37,000  Level FlightAware
12:41PM 39.2960 -89.2320 208° Southwest 462 532 37,000 660 Level FlightAware
12:42PM 39.2070 -89.2920 208° Southwest 459 528 38,000 660 Climbing FlightAware
12:43PM 39.1200 -89.3520 208° Southwest 458 527 38,000  Level FlightAware
12:43PM 39.0480 -89.4010 208° Southwest 458 527 38,000  Level FlightAware
12:44PM 38.9620 -89.4590 208° Southwest 458 527 38,000  Level FlightAware
12:45PM 38.9020 -89.5000 208° Southwest 458 527 38,000  Level FlightAware
12:45PM 38.8170 -89.5570 208° Southwest 458 527 38,000  Level FlightAware
12:46PM 38.7430 -89.6070 208° Southwest 459 528 38,000  Level FlightAware
12:47PM 38.6620 -89.6600 207° Southwest 459 528 38,000  Level FlightAware
12:48PM 38.5660 -89.7250 208° Southwest 465 535 38,000  Level FlightAware
12:48PM 38.4940 -89.7730 208° Southwest 467 537 38,000  Level FlightAware
12:49PM 38.4280 -89.8170 208° Southwest 467 537 38,000  Level FlightAware
12:50PM 38.3520 -89.8660 207° Southwest 467 537 38,000  Level FlightAware
12:50PM 38.2490 -89.9370 208° Southwest 466 536 38,000  Level FlightAware
12:51PM 38.1730 -89.9870 207° Southwest 466 536 38,000  Level FlightAware
12:52PM 38.0900 -90.0410 207° Southwest 468 539 38,000  Level FlightAware
12:52PM 38.0110 -90.0940 208° Southwest 470 541 38,000  Level FlightAware
12:53PM 37.9040 -90.1630 207° Southwest 472 543 38,000  Level FlightAware
12:54PM 37.8440 -90.2020 207° Southwest 472 543 38,000  Level FlightAware
12:55PM 37.7670 -90.2520 207° Southwest 472 543 38,000  Level FlightAware
12:55PM 37.7070 -90.2900 207° Southwest 472 543 38,000  Level FlightAware
12:56PM 37.6290 -90.3400 207° Southwest 472 543 38,000  Level FlightAware
12:57PM 37.5330 -90.4020 207° Southwest 472 543 38,000  Level FlightAware
12:58PM 37.4690 -90.4430 207° Southwest 472 543 38,000  Level FlightAware
12:59PM 37.2780 -90.5700 208° Southwest 463 533 38,000  Level FlightAware
12:59PM 37.1950 -90.6240 207° Southwest 463 533 38,000  Level FlightAware
01:03PM 36.7900 -90.8820 207° Southwest 457 526 38,000  Level FlightAware
01:04PM 36.7100 -90.9320 207° Southwest 457 526 38,000  Level FlightAware
01:04PM 36.6410 -90.9760 207° Southwest 460 529 38,000  Level FlightAware
01:05PM 36.5070 -91.0600 207° Southwest 466 536 38,000  Level FlightAware
01:07PM 36.3720 -91.1450 207° Southwest 465 535 38,000  Level FlightAware
01:07PM 36.2940 -91.1940 207° Southwest 463 533 38,000  Level FlightAware
01:08PM 36.2020 -91.2510 207° Southwest 463 533 38,000  Level FlightAware
01:09PM 36.1130 -91.3060 207° Southwest 463 533 38,000  Level FlightAware
01:10PM 36.0320 -91.3570 207° Southwest 453 521 38,000  Level FlightAware
01:10PM 35.9370 -91.4150 206° Southwest 451 519 38,000  Level FlightAware
01:12PM 35.7820 -91.5110 207° Southwest 449 517 38,000  Level FlightAware
01:13PM 35.7090 -91.5560 207° Southwest 449 517 38,000  Level FlightAware
01:13PM 35.6100 -91.6160 206° Southwest 449 517 38,000  Level FlightAware
01:15PM 35.4430 -91.7180 206° Southwest 448 516 38,000  Level FlightAware
01:16PM 35.3510 -91.7750 207° Southwest 449 517 38,000  Level FlightAware
01:17PM 35.2700 -91.8230 206° Southwest 448 516 38,000  Level FlightAware
01:17PM 35.1910 -91.8720 207° Southwest 448 516 38,000  Level FlightAware
01:18PM 35.1010 -91.9260 206° Southwest 448 516 38,000  Level FlightAware
01:19PM 35.0270 -91.9700 206° Southwest 448 516 38,000  Level FlightAware
01:19PM 34.9680 -92.0050 206° Southwest 448 516 38,000  Level FlightAware
01:20PM 34.8930 -92.0490 206° Southwest 448 516 38,000  Level FlightAware
01:21PM 34.8350 -92.0840 206° Southwest 448 516 38,000  Level FlightAware
01:22PM 34.7620 -92.1280 206° Southwest 448 516 38,000  Level FlightAware
01:22PM 34.6860 -92.1730 206° Southwest 448 516 38,000  Level FlightAware
01:23PM 34.6240 -92.2090 206° Southwest 448 516 38,000  Level FlightAware
01:24PM 34.5700 -92.2410 206° Southwest 448 516 38,000  Level FlightAware
01:24PM 34.4940 -92.2860 206° Southwest 448 516 38,000  Level FlightAware
01:25PM 34.4340 -92.3220 206° Southwest 448 516 38,000  Level FlightAware
01:25PM 34.3990 -92.3420 205° Southwest 448 516 38,000  Level FlightAware
01:26PM 34.3380 -92.3790 207° Southwest 448 516 38,000  Level FlightAware
01:27PM 34.2600 -92.4250 206° Southwest 448 516 38,000  Level FlightAware
01:27PM 34.2030 -92.4580 206° Southwest 448 516 38,000  Level FlightAware
01:29PM 33.8411 -92.3372 206° Southwest 454 522 38,000  Level Fort Worth Center
01:30PM 33.7294 -92.3586 189° South 443 510 38,000  Level Fort Worth Center
01:31PM 33.6050 -92.3808 188° South 448 516 38,000  Level Fort Worth Center
01:32PM 33.4767 -92.4031 188° South 455 524 38,000  Level Fort Worth Center
01:33PM 33.3544 -92.4250 189° South 455 524 38,000  Level Fort Worth Center
01:34PM 33.2300 -92.4469 188° South 460 529 38,000  Level Fort Worth Center
01:35PM 33.1058 -92.4711 189° South 460 529 38,000  Level Fort Worth Center
01:36PM 32.9814 -92.4931 188° South 460 529 38,000  Level Fort Worth Center
01:37PM 32.8592 -92.5144 188° South 460 529 38,000  Level Fort Worth Center
01:38PM 32.7408 -92.5358 189° South 449 517 38,000  Level Fort Worth Center
01:39PM 32.5939 -92.5653 190° South 444 511 38,000 -180 Level Houston Center
01:44PM 31.9227 -92.8126 190° South 457 526 37,000 -120 Descending FlightAware ADS-B
01:50PM 31.3828 -93.3058 218° Southwest 451 519 37,000  Level FlightAware ADS-B
01:51PM 31.3185 -93.3639 218° Southwest 452 520 37,000  Level FlightAware ADS-B
01:51PM 31.2604 -93.4165 218° Southwest 453 521 37,000 -360 Level FlightAware ADS-B
01:52PM 31.1658 -93.5016 218° Southwest 465 535 36,500 -1,080 Descending FlightAware ADS-B
01:53PM 31.1020 -93.5589 218° Southwest 469 540 35,400 -2,460 Descending FlightAware ADS-B
01:53PM 31.0497 -93.6062 218° Southwest 475 547 33,800 -3,300 Descending FlightAware ADS-B
01:54PM 30.9954 -93.6551 218° Southwest 480 552 32,100 -3,300 Descending FlightAware ADS-B
01:54PM 30.9343 -93.7097 217° Southwest 486 559 30,200 -3,060 Descending FlightAware ADS-B
01:55PM 30.8727 -93.7646 217° Southwest 480 552 28,600 -2,820 Descending FlightAware ADS-B
01:55PM 30.8194 -93.8124 218° Southwest 473 544 27,200 -2,700 Descending FlightAware ADS-B
01:56PM 30.7675 -93.8588 218° Southwest 466 536 25,900 -2,580 Descending FlightAware ADS-B
01:56PM 30.7141 -93.9064 217° Southwest 459 528 24,600 -2,520 Descending FlightAware ADS-B
01:57PM 30.6608 -93.9538 217° Southwest 451 519 23,300 -2,580 Descending FlightAware ADS-B
01:57PM 30.6083 -94.0005 217° Southwest 443 510 21,900 -2,460 Descending FlightAware ADS-B
01:58PM 30.5569 -94.0460 217° Southwest 434 499 20,700 -2,400 Descending FlightAware ADS-B
01:59PM 30.4621 -94.1296 217° Southwest 420 483 18,300 -2,400 Descending FlightAware ADS-B
01:59PM 30.4159 -94.1704 217° Southwest 412 474 17,100 -2,400 Descending FlightAware ADS-B
02:01PM 30.2730 -94.2963 217° Southwest 394 453 13,300 -2,280 Descending FlightAware ADS-B
02:02PM 30.2173 -94.3453 218° Southwest 375 432 12,000 -1,800 Descending FlightAware ADS-B
02:02PM 30.2085 -94.3556 225° Southwest 370 426 11,900 -600 Descending FlightAware ADS-B
02:02PM 30.2046 -94.3616 233° Southwest 366 421 11,900  Level FlightAware ADS-B
02:02PM 30.1998 -94.3709 239° Southwest 362 417 11,900 -780 Level FlightAware ADS-B
02:03PM 30.1832 -94.4469 258° West 337 388 11,300 -1,200 Descending FlightAware ADS-B
02:03PM 30.1746 -94.4952 256° West 338 389 10,500 -1,620 Descending FlightAware ADS-B
02:04PM 30.1616 -94.5309 243° Southwest 321 369 10,000 -1,260 Descending FlightAware ADS-B
02:04PM 30.1560 -94.5413 238° Southwest 314 361 9,900 -1,140 Descending FlightAware ADS-B
02:04PM 30.1529 -94.5465 235° Southwest 312 359 9,800 -1,740 Descending FlightAware ADS-B
02:04PM 30.1272 -94.5862 233° Southwest 302 348 8,900 -1,860 Descending FlightAware ADS-B
02:04PM 30.1144 -94.6059 233° Southwest 299 344 8,400 -1,500 Descending FlightAware ADS-B
02:06PM 30.0505 -94.7045 234° Southwest 286 329 6,600 -1,440 Descending FlightAware ADS-B
02:06PM 30.0385 -94.7233 234° Southwest 284 327 6,200 -1,440 Descending FlightAware ADS-B
02:06PM 30.0267 -94.7419 234° Southwest 282 325 5,900 -1,260 Descending FlightAware ADS-B
02:07PM 29.9910 -94.7972 233° Southwest 274 315 4,900 -1,440 Descending FlightAware ADS-B
02:07PM 29.9872 -94.8032 234° Southwest 272 313 4,700 -2,040 Descending FlightAware ADS-B
02:07PM 29.9848 -94.8081 241° Southwest 271 312 4,600 -1,500 Descending FlightAware ADS-B
02:07PM 29.9827 -94.8143 249° West 268 308 4,500 -780 Descending FlightAware ADS-B
02:07PM 29.9816 -94.8192 255° West 265 305 4,500 -720 Level FlightAware ADS-B
02:07PM 29.9804 -94.8262 259° West 261 300 4,400 -1,200 Descending FlightAware ADS-B
02:08PM 29.9796 -94.8324 262° West 257 296 4,300 -720 Descending FlightAware ADS-B
02:08PM 29.9790 -94.8386 264° West 254 292 4,300 -780 Level FlightAware ADS-B
02:08PM 29.9787 -94.8436 266° West 250 288 4,200 -840 Descending FlightAware ADS-B
02:08PM 29.9780 -94.8586 267° West 244 281 4,100 -600 Descending FlightAware ADS-B
02:08PM 29.9771 -94.8727 266° West 235 270 4,000 -600 Descending FlightAware ADS-B
02:08PM 29.9767 -94.8831 267° West 231 266 3,900 -900 Descending FlightAware ADS-B
02:09PM 29.9770 -94.9225 271° West 223 257 3,400 -1,020 Descending FlightAware ADS-B
02:09PM 29.9773 -94.9412 271° West 224 258 3,100 -1,080 Descending FlightAware ADS-B
02:09PM 29.9774 -94.9639 269° West 226 260 2,800 -1,080 Descending FlightAware ADS-B
02:10PM 29.9775 -95.0102 271° West 221 254 2,100 -1,140 Descending FlightAware ADS-B
02:10PM 29.9774 -95.0160 269° West 222 255 2,000 -480 Descending FlightAware ADS-B
02:10PM 29.9775 -95.0434 271° West 215 247 1,900 -180 Descending FlightAware ADS-B
02:11PM 29.9775 -95.0687 270° West 215 247 1,900  Level FlightAware ADS-B
02:11PM 29.9774 -95.0803 269° West 217 250 1,900  Level FlightAware ADS-B
02:11PM 29.9774 -95.0938 270° West 214 246 1,900  Level FlightAware ADS-B
02:11PM 29.9776 -95.1094 271° West 212 244 1,900  Level FlightAware ADS-B
02:12PM 29.9775 -95.1464 270° West 211 243 1,900  Level FlightAware ADS-B
02:12PM 29.9776 -95.1565 271° West 214 246 1,900  Level FlightAware ADS-B
02:12PM 29.9776 -95.1657 270° West 215 247 1,900 300 Level FlightAware ADS-B
02:12PM 29.9776 -95.1782 270° West 204 235 2,000  Climbing FlightAware ADS-B
02:13PM 29.9776 -95.1913 270° West 187 215 1,900 -960 Descending FlightAware ADS-B
02:13PM 29.9776 -95.2036 270° West 178 205 1,600 -1,140 Descending FlightAware ADS-B
02:13PM 29.9776 -95.2218 270° West 164 189 1,300 -840 Descending FlightAware ADS-B
02:13PM 29.9776 -95.2367 270° West 151 174 1,100 -840 Descending FlightAware ADS-B
02:14PM 29.9777 -95.2462 271° West 151 174 900 -900 Descending FlightAware ADS-B
02:14PM 29.9777 -95.2533 270° West 153 176 800 -900 Descending FlightAware ADS-B
02:14PM 29.9776 -95.2625 269° West 153 176 600 -960 Descending FlightAware ADS-B
02:14PM 29.9777 -95.2690 271° West 157 181 500 -420 Descending FlightAware ADS-B
02:14PM 29.9776 -95.2749 269° West 152 175 500 -600 Level FlightAware ADS-B
02:14PM 29.9776 -95.2774 270° West 150 173 400 -1,380 Descending FlightAware ADS-B
02:14PM 29.9777 -95.2821 271° West 151 174 300 -540 Descending FlightAware ADS-B
02:15PM 29.9776 -95.2957 270° West 151 174 200 -600 Descending FlightAware ADS-B
02:15PM 29.9777 -95.2998 272° West 152 175 100 -1,200 Descending FlightAware ADS-B